Time;durP1;ratioP1;P1;durP2;ratioP2;P2;SDS_P1;SDS_P2;PMS_P1;PMS_P2;Temp;Humidity;BMP_temperature;BMP_pressure;BME280_temperature;BME280_humidity;BME280_pressure;Samples;Min_cycle;Max_cycle;Signal;HPM_P1;HPM_P2
2023/11/07 00:02:14;;;;;;;17.03;8.63;;;;;;;8.93;100.00;99526.31;5022110;28;20041;-87
2023/11/07 00:04:41;;;;;;;16.43;8.40;;;;;;;9.00;100.00;99532.56;4995999;28;20027;-87
2023/11/07 00:07:07;;;;;;;19.52;8.48;;;;;;;8.99;100.00;99532.75;5007274;28;20106;-87
2023/11/07 00:09:33;;;;;;;18.38;8.35;;;;;;;8.96;100.00;99538.44;4964504;28;20016;-87
2023/11/07 00:11:59;;;;;;;19.42;8.27;;;;;;;8.83;100.00;99539.06;4999227;28;20431;-88
2023/11/07 00:14:24;;;;;;;14.90;7.97;;;;;;;8.86;100.00;99560.81;5063639;28;20071;-87
2023/11/07 00:16:50;;;;;;;16.95;8.38;;;;;;;8.78;100.00;99566.22;5043227;28;20029;-88
2023/11/07 00:19:16;;;;;;;16.00;7.38;;;;;;;8.79;100.00;99578.50;5057953;28;20043;-87
2023/11/07 00:21:41;;;;;;;25.05;9.68;;;;;;;8.93;100.00;99586.72;4981759;28;20189;-88
2023/11/07 00:24:07;;;;;;;17.95;8.70;;;;;;;8.78;100.00;99570.69;4970372;28;20019;-87
2023/11/07 00:26:34;;;;;;;16.95;8.27;;;;;;;8.75;100.00;99585.19;5090087;28;20037;-87
2023/11/07 00:28:59;;;;;;;17.02;7.55;;;;;;;8.82;100.00;99593.28;4982151;28;20031;-87
2023/11/07 00:31:24;;;;;;;21.27;9.60;;;;;;;8.94;100.00;99614.97;5014839;28;20035;-87
2023/11/07 00:33:50;;;;;;;23.00;9.90;;;;;;;8.98;100.00;99597.66;5055841;28;20117;-87
2023/11/07 00:36:16;;;;;;;20.37;8.40;;;;;;;8.92;100.00;99601.88;5049789;28;20036;-87
2023/11/07 00:38:41;;;;;;;20.15;8.18;;;;;;;8.91;100.00;99613.50;5013588;28;20287;-85
2023/11/07 00:41:07;;;;;;;14.93;9.03;;;;;;;8.94;100.00;99607.81;5067032;28;20126;-86
2023/11/07 00:43:34;;;;;;;21.50;11.13;;;;;;;8.91;100.00;99602.88;4970724;28;20026;-86
2023/11/07 00:46:00;;;;;;;16.08;8.35;;;;;;;9.12;100.00;99622.66;5003678;28;20032;-85
2023/11/07 00:48:25;;;;;;;13.65;8.75;;;;;;;8.95;100.00;99614.00;5010586;28;20027;-86
2023/11/07 00:50:51;;;;;;;19.37;8.63;;;;;;;8.93;100.00;99614.16;5053806;28;20669;-86
2023/11/07 00:53:16;;;;;;;15.93;8.57;;;;;;;9.00;100.00;99635.56;4981285;28;20066;-86
2023/11/07 00:55:41;;;;;;;20.87;8.60;;;;;;;9.06;100.00;99645.50;5048741;28;20100;-85
2023/11/07 00:58:07;;;;;;;22.30;9.63;;;;;;;9.01;100.00;99639.88;4961674;28;20053;-86
2023/11/07 01:00:33;;;;;;;17.83;9.07;;;;;;;9.12;100.00;99647.44;5025320;28;20024;-86
2023/11/07 01:02:59;;;;;;;;;;;;;;;9.08;100.00;99639.00;5020705;28;20417;-86
2023/11/07 01:05:24;;;;;;;16.02;8.43;;;;;;;9.02;100.00;99630.91;5044042;28;19997;-86
2023/11/07 01:07:50;;;;;;;22.97;10.40;;;;;;;8.99;100.00;99649.88;5019921;28;20039;-87
2023/11/07 01:10:15;;;;;;;19.20;10.70;;;;;;;8.90;100.00;99637.63;4969467;28;20117;-86
2023/11/07 01:12:40;;;;;;;20.20;9.93;;;;;;;9.00;100.00;99656.88;5012223;28;20032;-86
2023/11/07 01:15:06;;;;;;;17.70;9.57;;;;;;;9.02;100.00;99660.19;5070314;28;20094;-86
2023/11/07 01:17:32;;;;;;;22.58;9.25;;;;;;;8.95;100.00;99656.59;5020749;28;20034;-86
2023/11/07 01:19:57;;;;;;;21.43;10.03;;;;;;;8.88;100.00;99646.63;5010547;28;20038;-86
2023/11/07 01:22:23;;;;;;;15.23;9.53;;;;;;;8.90;100.00;99659.78;4964804;28;20331;-86
2023/11/07 01:24:49;;;;;;;16.55;9.20;;;;;;;8.83;100.00;99649.00;4959278;28;20113;-85
2023/11/07 01:27:14;;;;;;;19.40;10.23;;;;;;;8.91;100.00;99668.59;5035886;28;20119;-86
2023/11/07 01:29:39;;;;;;;17.23;9.80;;;;;;;8.92;100.00;99671.09;5003524;28;20070;-87
2023/11/07 01:32:05;;;;;;;21.17;9.87;;;;;;;8.92;100.00;99675.56;4982872;28;20372;-85
2023/11/07 01:34:31;;;;;;;20.38;9.80;;;;;;;8.85;100.00;99676.28;4992774;28;20035;-86
2023/11/07 01:36:56;;;;;;;22.07;10.40;;;;;;;8.80;100.00;99657.38;4951702;28;20046;-86
2023/11/07 01:39:21;;;;;;;19.83;10.30;;;;;;;8.82;100.00;99663.31;5057472;28;20036;-86
2023/11/07 01:41:47;;;;;;;20.27;9.80;;;;;;;8.82;100.00;99673.13;5073665;28;20539;-86
2023/11/07 01:44:12;;;;;;;17.33;9.97;;;;;;;8.78;100.00;99661.19;5054680;28;20531;-85
2023/11/07 01:46:38;;;;;;;23.67;9.40;;;;;;;8.81;100.00;99661.66;5032151;28;20423;-86
2023/11/07 01:49:04;;;;;;;22.13;10.85;;;;;;;8.85;100.00;99675.47;4999826;28;20024;-85
2023/11/07 01:51:30;;;;;;;22.58;11.38;;;;;;;8.78;100.00;99690.47;5069782;28;20236;-86
2023/11/07 01:53:56;;;;;;;18.75;10.32;;;;;;;8.68;100.00;99666.75;5027744;28;20029;-86
2023/11/07 01:56:23;;;;;;;18.27;10.93;;;;;;;8.84;100.00;99697.75;4967429;28;20384;-85
2023/11/07 01:58:50;;;;;;;19.60;10.15;;;;;;;8.86;100.00;99699.22;5047156;28;20414;-85
2023/11/07 02:01:16;;;;;;;21.00;9.93;;;;;;;8.90;100.00;99704.19;4987533;28;20082;-86
2023/11/07 02:03:42;;;;;;;20.63;10.88;;;;;;;8.88;100.00;99697.22;4991724;28;20115;-85
2023/11/07 02:06:08;;;;;;;22.23;11.95;;;;;;;8.83;100.00;99699.59;5070164;28;20369;-86
2023/11/07 02:08:34;;;;;;;22.37;10.47;;;;;;;8.80;100.00;99683.13;4969660;28;20037;-86
2023/11/07 02:10:59;;;;;;;24.55;11.10;;;;;;;8.97;100.00;99718.47;5010642;28;20015;-86
2023/11/07 02:13:25;;;;;;;18.83;10.48;;;;;;;8.85;100.00;99700.25;4975040;28;20558;-86
2023/11/07 02:15:53;;;;;;;30.10;10.90;;;;;;;8.94;100.00;99695.66;5052564;28;20082;-86
2023/11/07 02:18:19;;;;;;;20.73;10.30;;;;;;;8.87;100.00;99694.72;5064571;28;20031;-86
2023/11/07 02:20:45;;;;;;;17.13;10.37;;;;;;;8.79;100.00;99676.16;4967593;28;20030;-86
2023/11/07 02:23:29;;;;;;;20.33;11.50;;;;;;;8.76;100.00;99703.13;5050260;28;20028;-86
2023/11/07 02:25:54;;;;;;;23.42;11.57;;;;;;;8.70;100.00;99699.31;5030517;28;20030;-86
2023/11/07 02:28:19;;;;;;;27.70;12.53;;;;;;;8.85;100.00;99715.38;5072949;28;20028;-87
2023/11/07 02:30:45;;;;;;;23.87;11.30;;;;;;;8.81;100.00;99712.25;5046518;28;20325;-85
2023/11/07 02:33:11;;;;;;;16.67;9.63;;;;;;;8.61;100.00;99716.34;5050409;28;20028;-86
2023/11/07 02:35:37;;;;;;;26.70;12.73;;;;;;;8.68;100.00;99738.59;5069531;28;20033;-86
2023/11/07 02:38:02;;;;;;;;;;;;;;;8.85;100.00;99750.81;4989587;28;20014;-88
2023/11/07 02:40:28;;;;;;;21.38;10.48;;;;;;;8.75;100.00;99723.56;5037845;28;19969;-86
2023/11/07 02:42:53;;;;;;;21.23;11.03;;;;;;;8.82;100.00;99745.81;4979002;28;20024;-86
2023/11/07 02:45:19;;;;;;;21.93;11.20;;;;;;;8.74;100.00;99731.75;5067524;28;20825;-86
2023/11/07 02:47:44;;;;;;;28.63;12.20;;;;;;;8.73;100.00;99727.41;4982754;28;20128;-86
2023/11/07 02:50:10;;;;;;;21.43;11.13;;;;;;;8.68;100.00;99711.97;4982115;28;20126;-86
2023/11/07 02:52:38;;;;;;;18.75;10.65;;;;;;;8.82;100.00;99739.66;5040207;28;20686;-85
2023/11/07 02:55:04;;;;;;;21.17;10.02;;;;;;;8.75;100.00;99728.91;5061152;28;20135;-86
2023/11/07 02:57:29;;;;;;;24.13;10.43;;;;;;;8.74;100.00;99731.75;5069601;28;20056;-86
2023/11/07 02:59:54;;;;;;;25.47;11.60;;;;;;;8.76;100.00;99746.53;5032745;28;20110;-86
2023/11/07 03:02:20;;;;;;;21.47;10.77;;;;;;;8.83;100.00;99754.66;5023023;28;20024;-87
2023/11/07 03:04:46;;;;;;;16.42;10.82;;;;;;;8.80;100.00;99731.88;5031873;28;20021;-87
2023/11/07 03:07:11;;;;;;;22.95;10.60;;;;;;;8.71;100.00;99740.91;5027229;28;20515;-87
2023/11/07 03:09:37;;;;;;;23.83;12.60;;;;;;;8.79;100.00;99740.03;5017091;28;20080;-86
2023/11/07 03:12:03;;;;;;;21.73;10.68;;;;;;;8.78;100.00;99739.22;4960053;28;20501;-86
2023/11/07 03:14:29;;;;;;;;;;;;;;;8.80;100.00;99741.69;5044243;28;20038;-86
2023/11/07 03:16:55;;;;;;;18.85;11.05;;;;;;;8.77;100.00;99737.53;5069534;28;20010;-86
2023/11/07 03:19:21;;;;;;;20.77;11.10;;;;;;;8.64;100.00;99730.13;5020770;28;20489;-86
2023/11/07 03:21:46;;;;;;;17.48;10.43;;;;;;;8.62;100.00;99733.97;5015060;28;20032;-86
2023/11/07 03:24:12;;;;;;;18.27;10.73;;;;;;;8.50;100.00;99741.53;5070144;28;20119;-87
2023/11/07 03:26:37;;;;;;;22.00;10.77;;;;;;;8.61;100.00;99770.38;4994762;28;20099;-87
2023/11/07 03:29:02;;;;;;;22.83;11.07;;;;;;;8.53;100.00;99773.09;5056758;28;20488;-87
2023/11/07 03:31:28;;;;;;;24.90;10.97;;;;;;;8.49;100.00;99763.78;5015169;28;20398;-86
2023/11/07 03:33:53;;;;;;;26.75;11.40;;;;;;;8.54;100.00;99780.06;5028021;28;20045;-86
2023/11/07 03:36:19;;;;;;;23.63;11.13;;;;;;;8.53;100.00;99783.72;5059660;28;20039;-87
2023/11/07 03:38:44;;;;;;;19.37;11.37;;;;;;;8.49;100.00;99770.94;5012571;28;20030;-88
2023/11/07 03:41:10;;;;;;;22.00;11.73;;;;;;;8.52;100.00;99771.44;5014566;28;20494;-87
2023/11/07 03:43:36;;;;;;;24.37;12.67;;;;;;;8.54;100.00;99773.91;5046245;28;20034;-87
2023/11/07 03:46:02;;;;;;;24.27;12.98;;;;;;;8.54;100.00;99771.25;5063026;28;20047;-86
2023/11/07 03:48:28;;;;;;;22.83;11.23;;;;;;;8.54;100.00;99781.91;5037126;28;20036;-87
2023/11/07 03:50:54;;;;;;;25.27;12.25;;;;;;;8.51;100.00;99787.56;5062616;28;20051;-87
2023/11/07 03:53:20;;;;;;;23.98;11.63;;;;;;;8.53;100.00;99783.72;5057566;28;20047;-86
2023/11/07 03:55:45;;;;;;;27.15;12.85;;;;;;;8.50;100.00;99783.22;5035824;28;20036;-87
2023/11/07 03:58:14;;;;;;;23.65;12.23;;;;;;;8.53;100.00;99793.56;5025096;28;20519;-87
2023/11/07 04:00:40;;;;;;;21.48;12.30;;;;;;;8.54;100.00;99795.19;5031602;28;20033;-87
2023/11/07 04:03:06;;;;;;;22.40;11.65;;;;;;;8.38;100.00;99794.25;5016095;28;20046;-88
2023/11/07 04:05:32;;;;;;;24.45;10.30;;;;;;;8.40;100.00;99786.09;5044758;28;20216;-88
2023/11/07 04:07:57;;;;;;;27.07;11.60;;;;;;;8.50;100.00;99801.84;4995262;28;20103;-87
2023/11/07 04:10:23;;;;;;;27.40;12.40;;;;;;;8.49;100.00;99792.22;5034180;28;20038;-86
2023/11/07 04:12:49;;;;;;;22.23;12.00;;;;;;;8.61;100.00;99804.97;5024718;28;20051;-87
2023/11/07 04:15:14;;;;;;;21.77;12.82;;;;;;;8.67;100.00;99795.47;4965698;28;20406;-87
2023/11/07 04:17:40;;;;;;;22.60;11.27;;;;;;;8.55;100.00;99783.56;4990166;28;20031;-87
2023/11/07 04:20:09;;;;;;;25.83;11.33;;;;;;;8.65;100.00;99790.31;5048198;28;20037;-86
2023/11/07 04:22:38;;;;;;;23.17;10.27;;;;;;;8.66;100.00;99789.34;5072670;28;20024;-87
2023/11/07 04:25:05;;;;;;;15.10;9.63;;;;;;;8.75;100.00;99768.81;5073759;28;20064;-86
2023/11/07 04:27:31;;;;;;;23.45;11.25;;;;;;;8.72;100.00;99771.84;4986028;28;20027;-87
2023/11/07 04:29:57;;;;;;;15.70;10.55;;;;;;;8.69;100.00;99764.22;5001847;28;20046;-86
2023/11/07 04:32:22;;;;;;;27.03;10.37;;;;;;;8.71;100.00;99754.22;5000215;28;20022;-86
2023/11/07 04:34:47;;;;;;;19.90;10.13;;;;;;;8.66;100.00;99741.44;4977456;28;20322;-87
2023/11/07 04:37:14;;;;;;;21.37;11.03;;;;;;;8.72;100.00;99758.53;5037767;28;20030;-86
2023/11/07 04:39:39;;;;;;;;;;;;;;;8.80;100.00;99752.31;5073601;28;20719;-86
2023/11/07 04:42:05;;;;;;;16.55;9.65;;;;;;;8.76;100.00;99749.19;5014433;28;19916;-87
2023/11/07 04:44:31;;;;;;;21.60;10.82;;;;;;;8.71;100.00;99740.91;5059378;28;20119;-87
2023/11/07 04:46:57;;;;;;;19.70;10.18;;;;;;;8.73;100.00;99746.88;5073773;28;20039;-87
2023/11/07 04:49:23;;;;;;;16.98;9.50;;;;;;;8.81;100.00;99736.19;5072878;28;20036;-86
2023/11/07 04:51:48;;;;;;;14.73;8.98;;;;;;;8.78;100.00;99727.72;5039244;28;20031;-86
2023/11/07 04:54:13;;;;;;;19.63;10.37;;;;;;;8.76;100.00;99721.75;5010969;28;20829;-87
2023/11/07 04:56:39;;;;;;;21.58;8.98;;;;;;;8.94;100.00;99726.78;5012094;28;20064;-87
2023/11/07 04:59:04;;;;;;;19.67;8.73;;;;;;;8.87;100.00;99703.56;5034490;28;20044;-87
2023/11/07 05:01:29;;;;;;;18.33;9.67;;;;;;;8.91;100.00;99724.50;4974280;28;20058;-87
2023/11/07 05:03:55;;;;;;;14.07;8.93;;;;;;;8.73;100.00;99704.28;5014562;28;20034;-87
2023/11/07 05:06:20;;;;;;;25.93;10.67;;;;;;;8.75;100.00;99718.25;4999050;28;20567;-87
2023/11/07 05:08:46;;;;;;;18.70;8.90;;;;;;;8.86;100.00;99717.84;5050296;28;20035;-86
2023/11/07 05:11:17;;;;;;;17.90;9.77;;;;;;;8.80;100.00;99702.63;4997553;28;20035;-86
2023/11/07 05:13:43;;;;;;;15.43;8.90;;;;;;;8.85;100.00;99708.22;5015261;28;20076;-86
2023/11/07 05:16:09;;;;;;;21.92;9.85;;;;;;;8.94;100.00;99708.97;4999788;28;20523;-86
2023/11/07 05:18:34;;;;;;;14.45;8.75;;;;;;;9.04;100.00;99714.91;5001011;28;20043;-87
2023/11/07 05:21:00;;;;;;;24.13;10.00;;;;;;;9.04;100.00;99706.09;4957181;28;20033;-87
2023/11/07 05:23:25;;;;;;;19.60;9.47;;;;;;;8.93;100.00;99701.19;5047287;28;20289;-87
2023/11/07 05:25:51;;;;;;;21.23;9.70;;;;;;;8.94;100.00;99701.00;4998699;28;20026;-86
2023/11/07 05:28:16;;;;;;;20.03;10.50;;;;;;;8.92;100.00;99705.69;5071688;28;20059;-87
2023/11/07 05:30:41;;;;;;;17.10;9.43;;;;;;;8.95;100.00;99731.13;4965864;28;20050;-86
2023/11/07 05:33:07;;;;;;;16.03;9.90;;;;;;;8.88;100.00;99733.66;5033871;28;20028;-87
2023/11/07 05:35:35;;;;;;;27.27;9.27;;;;;;;8.99;100.00;99735.91;4987010;28;20068;-85
2023/11/07 05:38:00;;;;;;;17.60;10.25;;;;;;;8.98;100.00;99728.09;5071342;28;20075;-86
2023/11/07 05:40:27;;;;;;;22.20;9.63;;;;;;;8.90;100.00;99731.66;5028479;28;20054;-86
2023/11/07 05:42:52;;;;;;;;;;;;;;;8.95;100.00;99745.25;5029416;28;20036;-86
2023/11/07 05:45:18;;;;;;;24.30;10.48;;;;;;;9.00;100.00;99747.38;4958077;28;19936;-86
2023/11/07 05:47:44;;;;;;;20.70;9.48;;;;;;;8.81;100.00;99728.22;5086113;28;20032;-87
2023/11/07 05:50:10;;;;;;;20.55;9.43;;;;;;;8.78;100.00;99739.22;5033181;28;20446;-86
2023/11/07 05:52:36;;;;;;;24.70;9.90;;;;;;;8.89;100.00;99753.94;5005501;28;20036;-86
2023/11/07 05:55:10;;;;;;;21.67;10.80;;;;;;;8.79;100.00;99750.69;5038277;28;20036;-86
2023/11/07 05:57:35;;;;;;;29.73;11.13;;;;;;;8.87;100.00;99769.25;5012682;28;20145;-86
2023/11/07 06:00:01;;;;;;;20.60;9.43;;;;;;;8.88;100.00;99766.41;5070377;28;20626;-86
2023/11/07 06:02:26;;;;;;;23.03;9.43;;;;;;;8.86;100.00;99731.16;4975221;28;20137;-86
2023/11/07 06:04:55;;;;;;;15.17;8.70;;;;;;;8.78;100.00;99723.25;5032731;28;20037;-87
2023/11/07 06:07:21;;;;;;;17.40;9.23;;;;;;;8.95;100.00;99763.88;4959905;28;20375;-86
2023/11/07 06:09:46;;;;;;;;;;;;;;;8.88;100.00;99749.63;5019659;28;20028;-86
2023/11/07 06:12:12;;;;;;;16.67;10.65;;;;;;;8.86;100.00;99763.09;5053383;28;19939;-85
2023/11/07 06:14:37;;;;;;;20.17;8.33;;;;;;;8.98;100.00;99773.34;5059615;28;20025;-86
2023/11/07 06:17:03;;;;;;;17.93;8.40;;;;;;;9.05;100.00;99771.66;4986298;28;20042;-85
2023/11/07 06:19:28;;;;;;;24.15;9.65;;;;;;;8.98;100.00;99762.72;5046791;28;20117;-86
2023/11/07 06:21:54;;;;;;;21.35;8.27;;;;;;;8.95;100.00;99744.44;4975147;28;20070;-86
2023/11/07 06:24:19;;;;;;;21.57;10.43;;;;;;;9.06;100.00;99762.63;4966676;28;20519;-86
2023/11/07 06:26:48;;;;;;;18.03;8.53;;;;;;;9.08;100.00;99782.78;5085562;28;20025;-85
2023/11/07 06:29:16;;;;;;;22.33;9.15;;;;;;;9.02;100.00;99764.03;5069673;28;20185;-86
2023/11/07 06:31:45;;;;;;;19.42;9.40;;;;;;;9.04;100.00;99775.31;5056279;28;20119;-86
2023/11/07 06:34:11;;;;;;;18.77;8.18;;;;;;;8.94;100.00;99759.56;5053409;28;20564;-86
2023/11/07 06:36:36;;;;;;;;;;;;;;;9.00;100.00;99774.84;5012221;28;20018;-86
2023/11/07 06:39:02;;;;;;;25.23;8.85;;;;;;;9.10;100.00;99803.91;4963675;28;19972;-86
2023/11/07 06:41:28;;;;;;;21.55;8.75;;;;;;;8.99;100.00;99822.91;5036326;28;20028;-85
2023/11/07 06:43:53;;;;;;;25.13;9.80;;;;;;;8.71;100.00;99849.16;5027545;28;20067;-87
2023/11/07 06:46:18;;;;;;;18.63;9.57;;;;;;;8.85;100.00;99912.34;5053038;28;20094;-85
2023/11/07 06:48:48;;;;;;;26.53;12.07;;;;;;;8.65;100.00;99925.22;4971755;28;20029;-85
2023/11/07 06:51:14;;;;;;;22.15;10.32;;;;;;;8.63;100.00;99944.00;5004281;28;20039;-86
2023/11/07 06:53:39;;;;;;;22.55;11.90;;;;;;;8.72;100.00;99979.41;5069736;28;20028;-86
2023/11/07 06:56:05;;;;;;;18.10;11.37;;;;;;;8.67;100.00;99971.09;5038691;28;20128;-87
2023/11/07 06:58:30;;;;;;;24.13;11.18;;;;;;;8.54;100.00;99962.81;5032315;28;20031;-88
2023/11/07 07:00:55;;;;;;;30.43;13.17;;;;;;;8.59;100.00;99987.06;5023215;28;20032;-83
2023/11/07 07:03:25;;;;;;;27.30;11.83;;;;;;;8.59;100.00;99981.75;5000332;28;20633;-85
2023/11/07 07:05:56;;;;;;;33.80;12.85;;;;;;;8.72;100.00;99984.72;5024837;28;20033;-85
2023/11/07 07:08:25;;;;;;;19.92;10.00;;;;;;;8.66;100.00;99980.06;5035158;28;20096;-85
2023/11/07 07:10:51;;;;;;;22.80;11.40;;;;;;;8.76;100.00;99991.38;5022495;28;20543;-85
2023/11/07 07:13:19;;;;;;;24.75;9.85;;;;;;;8.67;100.00;99987.06;5034332;28;20032;-84
2023/11/07 07:15:45;;;;;;;18.98;10.77;;;;;;;8.60;100.00;99996.72;5033526;28;20017;-84
2023/11/07 07:18:15;;;;;;;22.98;10.75;;;;;;;8.67;100.00;100003.03;5051605;28;20033;-83
2023/11/07 07:20:41;;;;;;;20.60;10.48;;;;;;;8.64;100.00;100004.22;5036890;28;20134;-85
2023/11/07 07:23:08;;;;;;;24.90;11.87;;;;;;;8.77;100.00;100006.34;4997637;28;20067;-84
2023/11/07 07:25:36;;;;;;;33.45;10.88;;;;;;;8.65;100.00;100005.03;5040827;28;20034;-84
2023/11/07 07:28:04;;;;;;;25.83;11.50;;;;;;;8.71;100.00;99999.06;4973297;28;20046;-86
2023/11/07 07:30:32;;;;;;;18.55;10.40;;;;;;;8.61;100.00;100003.69;5005684;28;20061;-87
2023/11/07 07:33:01;;;;;;;25.80;12.40;;;;;;;8.71;100.00;100022.16;5017860;28;20032;-85
2023/11/07 07:35:32;;;;;;;24.27;11.20;;;;;;;8.68;100.00;100012.69;5009976;28;20023;-86
2023/11/07 07:38:02;;;;;;;22.90;10.70;;;;;;;8.73;100.00;100013.00;5038444;28;20035;-87
2023/11/07 07:40:29;;;;;;;22.88;10.93;;;;;;;8.52;100.00;99999.38;4995091;28;20061;-85
2023/11/07 07:42:59;;;;;;;24.17;10.07;;;;;;;8.62;100.00;100016.03;5036972;28;20034;-86
2023/11/07 07:45:29;;;;;;;23.95;10.45;;;;;;;8.66;100.00;100018.19;5015210;28;20065;-85
2023/11/07 07:47:56;;;;;;;17.00;9.90;;;;;;;8.53;100.00;100017.03;5011141;28;20645;-87
2023/11/07 07:50:22;;;;;;;19.50;10.38;;;;;;;8.57;100.00;100023.66;4978108;28;20487;-86
2023/11/07 07:52:54;;;;;;;16.70;9.83;;;;;;;8.65;100.00;100027.16;5052974;28;20092;-85
2023/11/07 07:55:19;;;;;;;19.70;10.27;;;;;;;8.71;100.00;100036.31;4987751;28;20334;-85
2023/11/07 07:57:45;;;;;;;17.75;9.43;;;;;;;8.68;100.00;100025.16;5048018;28;20043;-86
2023/11/07 08:00:14;;;;;;;25.93;9.97;;;;;;;8.79;100.00;100019.50;5027324;28;20083;-86
2023/11/07 08:02:45;;;;;;;22.08;10.90;;;;;;;8.63;100.00;100007.03;5013016;28;20043;-85
2023/11/07 08:05:17;;;;;;;19.27;10.25;;;;;;;8.69;100.00;100017.00;5036582;28;20043;-83
2023/11/07 08:07:50;;;;;;;17.67;9.07;;;;;;;8.83;100.00;100023.50;5053382;28;20047;-86
2023/11/07 08:10:19;;;;;;;34.80;11.82;;;;;;;8.86;100.00;100018.63;5042843;28;20074;-83
2023/11/07 08:12:53;;;;;;;19.30;9.65;;;;;;;8.73;100.00;99997.03;4988558;28;20069;-85
2023/11/07 08:15:18;;;;;;;23.48;10.02;;;;;;;8.92;100.00;100014.50;5020571;28;20046;-85
2023/11/07 08:17:44;;;;;;;36.23;10.93;;;;;;;9.08;100.00;100013.59;5082235;28;20029;-83
2023/11/07 08:20:19;;;;;;;25.52;10.52;;;;;;;8.92;100.00;99995.00;5024701;28;20051;-83
2023/11/07 08:22:45;;;;;;;20.42;9.13;;;;;;;8.94;100.00;100003.66;5062604;28;20039;-84
2023/11/07 08:25:12;;;;;;;26.27;10.15;;;;;;;9.09;100.00;100007.28;4969201;28;20019;-84
2023/11/07 08:27:41;;;;;;;19.05;10.20;;;;;;;9.21;100.00;100005.91;5043736;28;20029;-87
2023/11/07 08:30:15;;;;;;;25.40;10.45;;;;;;;9.20;100.00;100001.59;5053839;28;20047;-83
2023/11/07 08:32:44;;;;;;;20.55;9.65;;;;;;;9.03;100.00;99987.47;5052929;28;20123;-84
2023/11/07 08:35:11;;;;;;;20.52;10.20;;;;;;;9.11;100.00;99991.13;5047153;28;20047;-86
2023/11/07 08:37:47;;;;;;;24.98;9.93;;;;;;;9.17;100.00;99993.09;5042227;28;20476;-84
2023/11/07 08:40:16;;;;;;;24.25;9.55;;;;;;;8.84;100.00;99963.91;5003086;28;20100;-84
2023/11/07 08:42:45;;;;;;;17.92;10.15;;;;;;;8.92;100.00;99989.69;5046465;28;20035;-86
2023/11/07 08:45:15;;;;;;;19.10;9.65;;;;;;;9.13;100.00;100019.25;5053635;28;20086;-86
2023/11/07 08:47:52;;;;;;;23.92;9.80;;;;;;;9.20;100.00;100009.59;5035921;28;20036;-85
2023/11/07 08:50:20;;;;;;;23.70;9.82;;;;;;;9.21;100.00;100016.56;5058558;28;20028;-84
2023/11/07 08:52:47;;;;;;;18.63;8.75;;;;;;;9.27;100.00;100018.56;5035132;28;20021;-83
2023/11/07 08:55:13;;;;;;;19.88;9.18;;;;;;;9.20;100.00;100011.41;4970569;28;20043;-87
2023/11/07 08:57:39;;;;;;;25.58;10.85;;;;;;;9.33;100.00;100018.84;5040180;28;20141;-85
2023/11/07 09:00:09;;;;;;;21.77;9.27;;;;;;;9.39;100.00;100002.16;5028460;28;20068;-87
2023/11/07 09:02:38;;;;;;;17.42;10.05;;;;;;;9.40;100.00;99999.34;5020386;28;20469;-86
2023/11/07 09:05:05;;;;;;;21.67;9.77;;;;;;;9.47;100.00;100000.31;5005288;28;20038;-83
2023/11/07 09:07:31;;;;;;;21.70;8.57;;;;;;;9.34;100.00;99999.19;5040793;28;20036;-86
2023/11/07 09:09:57;;;;;;;22.17;8.65;;;;;;;9.54;100.00;99995.13;4999336;28;20109;-85
2023/11/07 09:12:23;;;;;;;15.57;8.15;;;;;;;9.61;100.00;99985.41;5017563;28;20054;-86
2023/11/07 09:14:49;;;;;;;17.83;8.05;;;;;;;9.79;100.00;99973.69;5049222;28;20036;-85
2023/11/07 09:17:14;;;;;;;20.05;7.50;;;;;;;9.89;100.00;99980.41;5019607;28;20514;-84
2023/11/07 09:19:41;;;;;;;19.17;7.30;;;;;;;9.88;100.00;99954.78;5006427;28;20050;-87
2023/11/07 09:22:07;;;;;;;14.43;6.93;;;;;;;9.80;100.00;99935.34;4983472;28;20023;-86
2023/11/07 09:24:33;;;;;;;17.75;7.72;;;;;;;9.78;100.00;99932.00;5008150;28;20085;-86
2023/11/07 09:26:58;;;;;;;14.23;6.57;;;;;;;9.71;100.00;99916.72;5069270;28;20054;-82
2023/11/07 09:29:24;;;;;;;16.92;8.13;;;;;;;9.90;100.00;99938.59;4979485;28;20031;-85
2023/11/07 09:31:52;;;;;;;14.30;7.13;;;;;;;10.18;100.00;99932.72;5047350;28;20534;-84
2023/11/07 09:34:20;;;;;;;19.30;7.70;;;;;;;10.25;100.00;99904.31;4978374;28;20089;-85
2023/11/07 09:36:47;;;;;;;16.45;6.55;;;;;;;10.54;100.00;99919.56;5041393;28;20407;-87
2023/11/07 09:39:12;;;;;;;;;;;;;;;10.59;100.00;99871.00;5018742;28;20027;-83
2023/11/07 09:41:41;;;;;;;15.48;6.45;;;;;;;10.59;100.00;99834.44;5033345;28;19912;-84
2023/11/07 09:44:10;;;;;;;16.00;6.38;;;;;;;10.83;100.00;99862.69;5006450;28;20445;-86
2023/11/07 09:46:38;;;;;;;13.23;6.07;;;;;;;10.92;100.00;99818.84;5019706;28;20047;-86
2023/11/07 09:49:04;;;;;;;13.45;6.78;;;;;;;11.20;100.00;99810.13;4986111;28;20045;-85
2023/11/07 09:51:31;;;;;;;15.98;6.75;;;;;;;11.19;100.00;99782.56;4997084;28;20102;-88
2023/11/07 09:53:58;;;;;;;12.02;6.32;;;;;;;11.79;100.00;99744.84;5033895;28;20048;-86
2023/11/07 09:56:44;;;;;;;9.73;4.97;;;;;;;12.27;100.00;99671.88;5028829;28;20128;-86
2023/11/07 10:00:02;;;;;;;10.52;5.63;;;;;;;12.06;100.00;99518.50;5049805;28;20062;-83
2023/11/07 10:02:48;;;;;;;16.67;5.28;;;;;;;11.68;100.00;99505.56;5006355;28;20131;-86
2023/11/07 10:05:36;;;;;;;14.38;6.05;;;;;;;11.19;100.00;99504.72;5013929;28;20175;-87
2023/11/07 10:08:22;;;;;;;10.43;5.10;;;;;;;12.53;100.00;99542.66;5013524;28;20504;-85
2023/11/07 10:11:07;;;;;;;10.27;4.40;;;;;;;12.99;100.00;99406.00;5013503;28;20247;-85
2023/11/07 10:14:05;;;;;;;15.93;5.57;;;;;;;12.33;100.00;99099.19;5027246;28;20048;-84
2023/11/07 10:16:52;;;;;;;15.95;5.15;;;;;;;12.74;100.00;99236.34;5009631;28;20117;-85
2023/11/07 10:19:36;;;;;;;13.30;5.30;;;;;;;12.79;100.00;99207.06;5013058;28;20141;-86
2023/11/07 10:22:21;;;;;;;12.23;5.35;;;;;;;13.01;100.00;99247.75;5012862;28;20048;-86
2023/11/07 10:25:06;;;;;;;13.60;4.70;;;;;;;12.51;100.00;99226.97;5010323;28;20063;-84
2023/11/07 10:27:53;;;;;;;11.98;5.28;;;;;;;12.17;100.00;99116.56;5026710;28;20079;-86
2023/11/07 10:30:43;;;;;;;13.63;7.05;;;;;;;11.44;100.00;99190.75;5012385;28;20472;-85
2023/11/07 10:33:10;;;;;;;10.73;5.55;;;;;;;11.15;100.00;99387.78;4994111;28;20137;-86
2023/11/07 10:35:54;;;;;;;12.15;5.80;;;;;;;11.08;100.00;99427.81;4996101;28;20037;-85
2023/11/07 10:38:23;;;;;;;12.73;5.65;;;;;;;10.90;100.00;99433.66;4977020;28;20096;-87
2023/11/07 10:40:49;;;;;;;17.92;5.70;;;;;;;10.97;100.00;99562.72;4968650;28;20036;-85
2023/11/07 10:43:37;;;;;;;14.30;5.38;;;;;;;10.74;100.00;99548.75;5008853;28;20035;-85
2023/11/07 10:46:05;;;;;;;18.60;5.97;;;;;;;10.73;100.00;99635.22;5029877;28;20111;-88
2023/11/07 10:48:33;;;;;;;14.02;5.60;;;;;;;10.48;100.00;99614.22;5008920;28;20019;-86
2023/11/07 10:51:03;;;;;;;11.02;6.15;;;;;;;10.60;100.00;99699.13;4944554;28;20058;-85
2023/11/07 10:53:33;;;;;;;15.80;5.75;;;;;;;10.60;100.00;99686.63;5030798;28;20029;-84
2023/11/07 10:55:59;;;;;;;15.13;5.38;;;;;;;10.60;100.00;99693.81;4987495;28;20435;-82
2023/11/07 10:58:31;;;;;;;12.48;6.63;;;;;;;10.48;100.00;99691.63;5043794;28;20454;-85
2023/11/07 11:01:01;;;;;;;11.65;5.53;;;;;;;10.54;100.00;99730.91;4998293;28;20029;-86
2023/11/07 11:03:28;;;;;;;19.83;5.68;;;;;;;10.56;100.00;99746.75;5005396;28;20468;-85
2023/11/07 11:05:54;;;;;;;16.00;5.25;;;;;;;10.77;100.00;99743.28;5067606;28;20035;-84
2023/11/07 11:08:23;;;;;;;12.52;4.95;;;;;;;10.73;100.00;99718.81;5046289;28;20071;-86
2023/11/07 11:10:52;;;;;;;17.65;5.80;;;;;;;10.78;100.00;99739.59;5063137;28;20528;-86
2023/11/07 11:13:24;;;;;;;21.45;5.47;;;;;;;10.82;100.00;99767.59;4961927;28;20058;-84
2023/11/07 11:15:52;;;;;;;12.73;5.15;;;;;;;10.72;100.00;99713.63;5003997;28;20042;-84
2023/11/07 11:18:24;;;;;;;12.95;5.32;;;;;;;11.01;100.00;99725.25;5028505;28;20090;-86
2023/11/07 11:21:16;;;;;;;15.70;5.22;;;;;;;10.86;100.00;99698.59;5035722;28;20419;-86
2023/11/07 11:23:48;;;;;;;20.70;6.63;;;;;;;10.94;100.00;99699.31;5046258;28;20039;-86
2023/11/07 11:26:20;;;;;;;12.90;5.53;;;;;;;10.97;100.00;99666.88;4961994;28;20031;-85